createdAt,value
2022-12-22T00:02:33.173Z,94567.59
2022-12-22T00:05:18.224Z,94557.50
2022-12-22T00:08:03.400Z,94558.69
2022-12-22T00:10:49.989Z,94558.03
2022-12-22T00:13:35.129Z,94558.41
2022-12-22T00:16:20.404Z,94546.09
2022-12-22T00:19:05.666Z,94545.16
2022-12-22T00:21:50.936Z,94548.38
2022-12-22T00:24:36.287Z,94538.66
2022-12-22T00:27:23.011Z,94530.81
2022-12-22T00:30:08.390Z,94524.25
2022-12-22T00:32:55.886Z,94521.09
2022-12-22T00:35:43.580Z,94519.78
2022-12-22T00:38:32.589Z,94518.38
2022-12-22T00:41:17.945Z,94517.63
2022-12-22T00:44:04.401Z,94529.41
2022-12-22T00:46:50.593Z,94534.91
2022-12-22T00:49:36.359Z,94525.81
2022-12-22T00:52:22.114Z,94527.00
2022-12-22T00:55:08.029Z,94529.50
2022-12-22T00:57:53.439Z,94530.22
2022-12-22T01:00:40.421Z,94526.03
2022-12-22T01:03:27.990Z,94517.56
2022-12-22T01:06:13.322Z,94520.50
2022-12-22T01:08:58.708Z,94513.66
2022-12-22T01:11:45.175Z,94515.78
2022-12-22T01:14:31.041Z,94504.69
2022-12-22T01:17:17.518Z,94509.59
2022-12-22T01:20:02.920Z,94509.66
2022-12-22T01:22:48.118Z,94509.16
2022-12-22T01:25:35.473Z,94509.38
2022-12-22T01:28:21.328Z,94508.09
2022-12-22T01:31:06.653Z,94517.19
2022-12-22T01:33:53.613Z,94512.69
2022-12-22T01:36:38.899Z,94514.16
2022-12-22T01:39:24.261Z,94516.88
2022-12-22T01:42:09.669Z,94514.78
2022-12-22T01:44:55.113Z,94517.25
2022-12-22T01:47:50.681Z,94518.69
2022-12-22T01:50:40.322Z,94514.94
2022-12-22T01:53:27.861Z,94513.88
2022-12-22T01:56:13.118Z,94509.31
2022-12-22T01:59:02.567Z,94502.25
2022-12-22T02:01:48.707Z,94500.38
2022-12-22T02:04:34.410Z,94500.38
2022-12-22T02:07:28.518Z,94503.94
2022-12-22T02:10:18.303Z,94488.53
2022-12-22T02:13:12.222Z,94491.69
2022-12-22T02:16:02.178Z,94489.44
2022-12-22T02:18:50.273Z,94498.44
2022-12-22T02:21:38.158Z,94492.03
2022-12-22T02:24:35.715Z,94487.75
2022-12-22T02:27:22.172Z,94491.91
2022-12-22T02:30:10.638Z,94495.94
2022-12-22T02:33:02.210Z,94492.75
2022-12-22T02:35:57.741Z,94492.44
2022-12-22T02:38:47.161Z,94495.06
2022-12-22T02:41:35.407Z,94491.69
2022-12-22T02:44:35.017Z,94491.94
2022-12-22T02:47:26.560Z,94504.03
2022-12-22T02:50:14.029Z,94502.75
2022-12-22T02:53:00.950Z,94501.84
2022-12-22T02:55:46.707Z,94506.41
2022-12-22T02:58:33.026Z,94508.28
2022-12-22T03:01:21.693Z,94500.84
2022-12-22T03:04:06.912Z,94504.19
2022-12-22T03:06:52.289Z,94507.22
2022-12-22T03:09:37.624Z,94502.88
2022-12-22T03:12:23.067Z,94496.88
2022-12-22T03:15:08.303Z,94493.00
2022-12-22T03:17:54.805Z,94489.09
2022-12-22T03:20:40.106Z,94497.09
2022-12-22T03:23:25.842Z,94485.13
2022-12-22T03:25:56.485Z,94483.47
2022-12-22T03:28:26.540Z,94480.19
2022-12-22T03:30:56.152Z,94470.88
2022-12-22T03:33:25.182Z,94470.28
2022-12-22T03:35:52.781Z,94476.41
2022-12-22T03:38:20.721Z,94463.72
2022-12-22T03:40:48.366Z,94469.81
2022-12-22T03:43:34.627Z,94464.88
2022-12-22T03:46:20.314Z,94462.63
2022-12-22T03:49:09.527Z,94457.47
2022-12-22T03:51:38.413Z,94458.53
2022-12-22T03:54:06.161Z,94454.19
2022-12-22T03:56:34.075Z,94447.72
2022-12-22T03:59:01.705Z,94447.72
2022-12-22T04:01:29.457Z,94453.47
2022-12-22T04:03:58.539Z,94448.06
2022-12-22T04:06:26.129Z,94441.56
2022-12-22T04:08:53.694Z,94438.97
2022-12-22T04:11:39.105Z,94447.22
2022-12-22T04:14:06.747Z,94446.50
2022-12-22T04:16:34.651Z,94439.81
2022-12-22T04:19:03.820Z,94445.91
2022-12-22T04:21:31.449Z,94450.63
2022-12-22T04:23:59.033Z,94453.56
2022-12-22T04:26:26.753Z,94453.75
2022-12-22T04:28:54.753Z,94442.31
2022-12-22T04:31:22.890Z,94447.91
2022-12-22T04:33:50.583Z,94460.50
2022-12-22T04:36:20.087Z,94449.75
2022-12-22T04:38:47.665Z,94453.97
2022-12-22T04:41:15.299Z,94443.81
2022-12-22T04:43:42.858Z,94444.16
2022-12-22T04:46:10.470Z,94449.19
2022-12-22T04:48:38.110Z,94445.50
2022-12-22T04:51:06.020Z,94442.19
2022-12-22T04:53:34.997Z,94442.78
2022-12-22T04:56:04.099Z,94446.66
2022-12-22T04:58:33.071Z,94443.44
2022-12-22T05:01:10.147Z,94435.31
2022-12-22T05:03:37.851Z,94431.53
2022-12-22T05:06:06.030Z,94420.69
2022-12-22T05:08:35.048Z,94425.28
2022-12-22T05:11:02.846Z,94434.09
2022-12-22T05:13:30.676Z,94423.00
2022-12-22T05:16:04.366Z,94420.31
2022-12-22T05:18:32.618Z,94420.19
2022-12-22T05:21:00.197Z,94411.47
2022-12-22T05:23:27.783Z,94403.50
2022-12-22T05:25:56.733Z,94403.19
2022-12-22T05:28:24.357Z,94396.63
2022-12-22T05:30:51.988Z,94400.63
2022-12-22T05:33:19.763Z,94394.06
2022-12-22T05:35:47.379Z,94395.44
2022-12-22T05:38:15.027Z,94393.22
2022-12-22T05:40:42.601Z,94393.81
2022-12-22T05:43:11.628Z,94394.88
2022-12-22T05:45:39.217Z,94396.41
2022-12-22T05:48:07.363Z,94409.97
2022-12-22T05:50:34.968Z,94412.56
2022-12-22T05:53:02.556Z,94415.53
2022-12-22T05:55:30.174Z,94413.09
2022-12-22T05:58:01.719Z,94417.56
2022-12-22T06:00:31.769Z,94419.81
2022-12-22T06:02:59.874Z,94417.91
2022-12-22T06:05:27.465Z,94429.22
2022-12-22T06:07:55.035Z,94424.06
2022-12-22T06:10:22.643Z,94427.03
2022-12-22T06:12:50.267Z,94418.81
2022-12-22T06:15:18.032Z,94407.97
2022-12-22T06:17:46.973Z,94409.03
2022-12-22T06:20:15.256Z,94419.28
2022-12-22T06:22:42.944Z,94409.41
2022-12-22T06:25:17.675Z,94412.34
2022-12-22T06:27:45.958Z,94407.75
2022-12-22T06:30:14.223Z,94397.41
2022-12-22T06:32:42.063Z,94421.06
2022-12-22T06:35:11.876Z,94428.09
2022-12-22T06:37:39.821Z,94436.31
2022-12-22T06:40:08.638Z,94431.56
2022-12-22T06:42:53.908Z,94444.63
2022-12-22T06:45:21.612Z,94450.13
2022-12-22T06:47:49.306Z,94443.50
2022-12-22T06:50:18.457Z,94444.09
2022-12-22T06:52:46.046Z,94438.41
2022-12-22T06:55:13.656Z,94433.00
2022-12-22T06:57:41.246Z,94422.47
2022-12-22T07:00:10.131Z,94431.19
2022-12-22T07:02:37.898Z,94410.91
2022-12-22T07:05:06.186Z,94410.66
2022-12-22T07:07:35.105Z,94403.59
2022-12-22T07:10:02.936Z,94409.34
2022-12-22T07:12:30.533Z,94404.44
2022-12-22T07:14:58.141Z,94413.63
2022-12-22T07:17:25.748Z,94426.69
2022-12-22T07:19:53.312Z,94426.22
2022-12-22T07:22:27.588Z,94416.41
2022-12-22T07:24:58.883Z,94422.31
2022-12-22T07:27:26.572Z,94424.47
2022-12-22T07:29:54.183Z,94418.47
2022-12-22T07:32:21.770Z,94420.00
2022-12-22T07:34:49.333Z,94404.50
2022-12-22T07:37:16.903Z,94405.81
2022-12-22T07:39:44.527Z,94400.28
2022-12-22T07:42:31.305Z,94405.97
2022-12-22T07:44:58.907Z,94408.66
2022-12-22T07:47:33.216Z,94408.66
2022-12-22T07:50:20.512Z,94396.78
2022-12-22T07:52:48.091Z,94410.97
2022-12-22T07:55:15.774Z,94395.53
2022-12-22T07:57:44.735Z,94396.47
2022-12-22T08:00:13.782Z,94413.94
2022-12-22T08:02:41.747Z,94430.53
2022-12-22T08:05:10.711Z,94428.44
2022-12-22T08:07:38.354Z,94425.91
2022-12-22T08:10:06.538Z,94424.72
2022-12-22T08:12:34.093Z,94419.69
2022-12-22T08:15:03.148Z,94428.97
2022-12-22T08:17:30.775Z,94432.00
2022-12-22T08:19:58.443Z,94436.38
2022-12-22T08:22:26.439Z,94434.53
2022-12-22T08:24:54.760Z,94429.88
2022-12-22T08:27:26.528Z,94409.38
2022-12-22T08:29:57.560Z,94422.84
2022-12-22T08:32:26.627Z,94423.81
2022-12-22T08:34:54.882Z,94418.19
2022-12-22T08:37:25.800Z,94422.28
2022-12-22T08:39:55.558Z,94414.72
2022-12-22T08:42:23.793Z,94412.59
2022-12-22T08:44:53.327Z,94402.84
2022-12-22T08:47:21.692Z,94412.41
2022-12-22T08:49:51.077Z,94417.66
2022-12-22T08:52:19.472Z,94406.44
2022-12-22T08:54:47.716Z,94396.91
2022-12-22T08:57:15.385Z,94403.72
2022-12-22T08:59:43.011Z,94404.56
2022-12-22T09:02:10.665Z,94406.97
2022-12-22T09:04:38.269Z,94395.50
2022-12-22T09:07:07.223Z,94393.56
2022-12-22T09:09:35.721Z,94395.44
2022-12-22T09:12:04.086Z,94403.34
2022-12-22T09:14:32.771Z,94398.41
2022-12-22T09:17:00.602Z,94401.13
2022-12-22T09:19:28.472Z,94419.56
2022-12-22T09:21:56.195Z,94414.16
2022-12-22T09:24:25.202Z,94413.91
2022-12-22T09:26:52.807Z,94415.81
2022-12-22T09:29:20.469Z,94432.66
2022-12-22T09:31:48.215Z,94426.16
2022-12-22T09:34:18.380Z,94425.91
2022-12-22T09:36:46.389Z,94414.22
2022-12-22T09:39:14.742Z,94402.47
2022-12-22T09:41:46.496Z,94398.19
2022-12-22T09:44:21.370Z,94399.81
2022-12-22T09:46:49.085Z,94398.56
2022-12-22T09:49:17.941Z,94384.72
2022-12-22T09:51:48.231Z,94380.47
2022-12-22T09:54:16.066Z,94375.06
2022-12-22T09:56:45.246Z,94369.94
2022-12-22T09:59:14.131Z,94379.50
2022-12-22T10:01:59.829Z,94373.56
2022-12-22T10:04:37.307Z,94383.06
2022-12-22T10:07:14.564Z,94378.53
2022-12-22T10:09:51.264Z,94374.78
2022-12-22T10:12:23.419Z,94392.75
2022-12-22T10:14:53.152Z,94357.47
2022-12-22T10:17:23.941Z,94371.16
2022-12-22T10:19:53.182Z,94376.09
2022-12-22T10:22:27.556Z,94368.22
2022-12-22T10:24:55.670Z,94364.22
2022-12-22T10:27:29.277Z,94345.56
2022-12-22T10:30:21.468Z,94347.50
2022-12-22T10:33:05.725Z,94341.56
2022-12-22T10:35:54.802Z,94342.66
2022-12-22T10:38:26.209Z,94343.22
2022-12-22T10:41:01.762Z,94334.47
2022-12-22T10:43:34.251Z,94352.50
2022-12-22T10:46:02.601Z,94360.09
2022-12-22T10:48:32.456Z,94366.63
2022-12-22T10:51:00.993Z,94369.63
2022-12-22T10:53:46.683Z,94382.19
2022-12-22T10:56:24.198Z,94375.38
2022-12-22T10:58:55.027Z,94357.41
2022-12-22T11:01:28.712Z,94372.06
2022-12-22T11:03:56.580Z,94381.03
2022-12-22T11:06:24.294Z,94374.78
2022-12-22T11:08:52.262Z,94380.75
2022-12-22T11:11:33.386Z,94368.47
2022-12-22T11:14:09.449Z,94371.44
2022-12-22T11:16:42.559Z,94371.09
2022-12-22T11:19:29.574Z,94386.84
2022-12-22T11:22:01.747Z,94370.47
2022-12-22T11:24:32.424Z,94373.47
2022-12-22T11:27:08.723Z,94378.31
2022-12-22T11:30:02.762Z,94370.63
2022-12-22T11:32:47.781Z,94358.13
2022-12-22T11:35:20.705Z,94361.66
2022-12-22T11:37:51.511Z,94343.63
2022-12-22T11:40:28.396Z,94340.66
2022-12-22T11:43:19.268Z,94330.31
2022-12-22T11:46:01.902Z,94324.47
2022-12-22T11:48:51.597Z,94320.88
2022-12-22T11:51:31.801Z,94316.63
2022-12-22T11:54:11.881Z,94314.22
2022-12-22T11:56:41.721Z,94318.34
2022-12-22T11:59:21.249Z,94317.19
2022-12-22T12:02:19.129Z,94313.34
2022-12-22T12:05:22.011Z,94316.59
2022-12-22T12:07:52.314Z,94311.38
2022-12-22T12:10:25.356Z,94320.34
2022-12-22T12:12:59.833Z,94315.13
2022-12-22T12:15:32.250Z,94325.00
2022-12-22T12:18:27.711Z,94327.41
2022-12-22T12:21:02.264Z,94317.59
2022-12-22T12:23:53.705Z,94314.31
2022-12-22T12:26:24.877Z,94317.59
2022-12-22T12:29:02.577Z,94321.97
2022-12-22T12:31:33.914Z,94317.88
2022-12-22T12:34:03.319Z,94315.44
2022-12-22T12:36:33.073Z,94323.34
2022-12-22T12:39:07.972Z,94298.56
2022-12-22T12:41:42.146Z,94319.84
2022-12-22T12:44:13.528Z,94314.38
2022-12-22T12:47:07.999Z,94320.91
2022-12-22T12:50:21.286Z,94328.25
2022-12-22T12:53:07.905Z,94329.06
2022-12-22T12:55:52.893Z,94335.34
2022-12-22T12:58:49.106Z,94338.59
2022-12-22T13:01:56.123Z,94334.22
2022-12-22T13:05:10.509Z,94323.59
2022-12-22T13:08:08.657Z,94336.13
2022-12-22T13:10:38.591Z,94322.22
2022-12-22T13:13:06.593Z,94331.22
2022-12-22T13:15:35.590Z,94330.66
2022-12-22T13:18:04.171Z,94319.22
2022-12-22T13:20:34.949Z,94324.13
2022-12-22T13:23:05.258Z,94331.25
2022-12-22T13:25:42.506Z,94333.41
2022-12-22T13:28:16.093Z,94347.00
2022-12-22T13:30:47.408Z,94340.44
2022-12-22T13:33:17.360Z,94347.81
2022-12-22T13:35:49.240Z,94374.78
2022-12-22T13:38:29.139Z,94356.28
2022-12-22T13:40:58.860Z,94374.28
2022-12-22T13:43:28.084Z,94375.91
2022-12-22T13:45:56.822Z,94380.53
2022-12-22T13:48:29.019Z,94391.66
2022-12-22T13:50:56.869Z,94362.56
2022-12-22T13:56:23.775Z,94384.59
2022-12-22T13:58:54.642Z,94376.97
2022-12-22T14:01:22.267Z,94381.84
2022-12-22T14:04:01.358Z,94385.91
2022-12-22T14:06:31.883Z,94372.00
2022-12-22T14:09:14.349Z,94380.41
2022-12-22T14:11:51.072Z,94379.03
2022-12-22T14:14:23.402Z,94389.66
2022-12-22T14:16:52.524Z,94388.84
2022-12-22T14:19:21.708Z,94391.47
2022-12-22T14:21:52.176Z,94391.72
2022-12-22T14:24:22.754Z,94394.72
2022-12-22T14:26:52.144Z,94393.66
2022-12-22T14:29:22.554Z,94404.28
2022-12-22T14:31:57.335Z,94403.44
2022-12-22T14:34:26.814Z,94413.81
2022-12-22T14:36:54.488Z,94409.97
2022-12-22T14:39:23.870Z,94407.25
2022-12-22T14:41:54.432Z,94409.97
2022-12-22T14:44:23.871Z,94426.81
2022-12-22T14:47:06.552Z,94414.28
2022-12-22T14:49:34.532Z,94414.47
2022-12-22T14:52:07.764Z,94407.97
2022-12-22T14:54:35.570Z,94435.44
2022-12-22T14:57:15.725Z,94423.53
2022-12-22T14:59:59.418Z,94430.34
2022-12-22T15:02:35.020Z,94422.44
2022-12-22T15:05:17.797Z,94433.84
2022-12-22T15:08:07.472Z,94422.97
2022-12-22T15:10:39.205Z,94438.44
2022-12-22T15:13:13.531Z,94440.63
2022-12-22T15:15:41.121Z,94438.16
2022-12-22T15:18:13.665Z,94451.50
2022-12-22T15:20:41.398Z,94454.47
2022-12-22T15:23:12.698Z,94447.91
2022-12-22T15:25:40.406Z,94455.50
2022-12-22T15:28:09.471Z,94457.91
2022-12-22T15:30:37.320Z,94455.94
2022-12-22T15:33:05.249Z,94467.91
2022-12-22T15:35:34.202Z,94468.44
2022-12-22T15:38:02.444Z,94471.09
2022-12-22T15:40:30.142Z,94468.94
2022-12-22T15:42:57.739Z,94470.03
2022-12-22T15:45:26.815Z,94471.66
2022-12-22T15:47:55.618Z,94475.47
2022-12-22T15:50:25.164Z,94475.38
2022-12-22T15:52:54.215Z,94479.94
2022-12-22T15:55:22.312Z,94493.78
2022-12-22T15:57:51.159Z,94480.19
2022-12-22T16:00:20.385Z,94487.47
2022-12-22T16:02:49.739Z,94485.56
2022-12-22T16:05:18.051Z,94484.50
2022-12-22T16:07:46.030Z,94486.56
2022-12-22T16:10:23.019Z,94487.59
2022-12-22T16:12:54.578Z,94488.91
2022-12-22T16:15:22.952Z,94492.97
2022-12-22T16:17:53.040Z,94500.53
2022-12-22T16:20:21.071Z,94499.16
2022-12-22T16:22:50.023Z,94491.25
2022-12-22T16:25:19.335Z,94492.38
2022-12-22T16:27:49.510Z,94495.09
2022-12-22T16:30:21.203Z,94496.19
2022-12-22T16:32:48.990Z,94483.41
2022-12-22T16:35:20.737Z,94491.31
2022-12-22T16:37:49.791Z,94485.38
2022-12-22T16:40:19.093Z,94487.84
2022-12-22T16:45:37.098Z,94493.78
2022-12-22T16:48:07.331Z,94482.63
2022-12-22T16:50:36.655Z,94499.47
2022-12-22T16:53:06.325Z,94502.19
2022-12-22T16:55:35.882Z,94498.41
2022-12-22T16:58:12.714Z,94492.97
2022-12-22T17:00:41.983Z,94500.78
2022-12-22T17:03:14.797Z,94510.84
2022-12-22T17:05:45.776Z,94518.19
2022-12-22T17:08:21.105Z,94516.28
2022-12-22T17:10:48.768Z,94515.22
2022-12-22T17:13:16.781Z,94516.59
2022-12-22T17:15:44.365Z,94498.06
2022-12-22T17:18:16.801Z,94518.50
2022-12-22T17:20:46.515Z,94500.03
2022-12-22T17:23:27.400Z,94508.75
2022-12-22T17:25:54.966Z,94507.63
2022-12-22T17:28:22.586Z,94513.31
2022-12-22T17:30:50.522Z,94518.50
2022-12-22T17:33:18.557Z,94513.06
2022-12-22T17:35:48.189Z,94503.78
2022-12-22T17:38:16.856Z,94491.81
2022-12-22T17:40:44.914Z,94491.25
2022-12-22T17:43:14.837Z,94502.06
2022-12-22T17:45:42.781Z,94503.13
2022-12-22T17:48:10.370Z,94490.63
2022-12-22T17:50:38.063Z,94494.91
2022-12-22T17:53:07.365Z,94487.84
2022-12-22T17:56:07.323Z,94482.66
2022-12-22T17:58:22.790Z,94480.44
2022-12-22T18:00:50.317Z,94470.63
2022-12-22T18:03:18.156Z,94477.41
2022-12-22T18:05:48.131Z,94475.44
2022-12-22T18:08:19.964Z,94474.63
2022-12-22T18:10:48.324Z,94472.66
2022-12-22T18:13:18.340Z,94465.25
2022-12-22T18:15:46.062Z,94468.53
2022-12-22T18:18:14.952Z,94478.34
2022-12-22T18:20:43.434Z,94473.41
2022-12-22T18:23:16.550Z,94469.03
2022-12-22T18:25:45.531Z,94469.56
2022-12-22T18:28:15.602Z,94458.88
2022-12-22T18:30:43.290Z,94459.69
2022-12-22T18:33:10.910Z,94447.16
2022-12-22T18:35:39.281Z,94451.22
2022-12-22T18:38:07.521Z,94442.22
2022-12-22T18:40:36.862Z,94440.84
2022-12-22T18:43:10.283Z,94440.28
2022-12-22T18:45:38.051Z,94444.56
2022-12-22T18:48:05.946Z,94432.88
2022-12-22T18:50:34.885Z,94442.09
2022-12-22T18:53:04.662Z,94436.66
2022-12-22T18:55:33.628Z,94442.00
2022-12-22T18:58:01.341Z,94439.78
2022-12-22T19:00:31.988Z,94434.84
2022-12-22T19:03:01.088Z,94426.13
2022-12-22T19:05:30.359Z,94429.16
2022-12-22T19:07:58.840Z,94423.50
2022-12-22T19:10:30.263Z,94426.47
2022-12-22T19:12:58.271Z,94420.22
2022-12-22T19:15:30.727Z,94419.72
2022-12-22T19:17:58.564Z,94417.56
2022-12-22T19:20:26.696Z,94413.81
2022-12-22T19:22:54.277Z,94414.13
2022-12-22T19:25:24.730Z,94410.59
2022-12-22T19:27:53.847Z,94410.00
2022-12-22T19:30:23.007Z,94398.56
2022-12-22T19:32:56.459Z,94398.63
2022-12-22T19:35:25.430Z,94396.50
2022-12-22T19:37:54.073Z,94391.91
2022-12-22T19:40:23.475Z,94380.78
2022-12-22T19:42:52.972Z,94387.59
2022-12-22T19:45:22.398Z,94378.72
2022-12-22T19:47:51.758Z,94376.56
2022-12-22T19:50:20.787Z,94379.59
2022-12-22T19:52:48.335Z,94371.78
2022-12-22T19:55:16.327Z,94375.56
2022-12-22T19:57:44.712Z,94376.88
2022-12-22T20:00:17.843Z,94383.22
2022-12-22T20:02:46.120Z,94376.13
2022-12-22T20:05:30.271Z,94377.28
2022-12-22T20:08:00.237Z,94388.44
2022-12-22T20:10:29.396Z,94373.47
2022-12-22T20:12:58.912Z,94377.28
2022-12-22T20:15:28.051Z,94369.13
2022-12-22T20:17:57.441Z,94362.66
2022-12-22T20:20:29.824Z,94358.88
2022-12-22T20:22:58.520Z,94343.91
2022-12-22T20:25:27.980Z,94346.06
2022-12-22T20:27:56.814Z,94338.16
2022-12-22T20:30:26.394Z,94333.56
2022-12-22T20:32:54.517Z,94323.50
2022-12-22T20:35:22.406Z,94334.88
2022-12-22T20:37:51.466Z,94318.03
2022-12-22T20:40:24.726Z,94323.72
2022-12-22T20:42:52.897Z,94330.44
2022-12-22T20:45:22.079Z,94322.81
2022-12-22T20:47:50.291Z,94322.25
2022-12-22T20:50:20.692Z,94320.63
2022-12-22T20:52:48.720Z,94318.47
2022-12-22T20:55:19.184Z,94319.28
2022-12-22T20:57:47.337Z,94318.47
2022-12-22T21:00:20.552Z,94315.50
2022-12-22T21:02:48.214Z,94305.69
2022-12-22T21:05:16.018Z,94303.03
2022-12-22T21:07:44.934Z,94316.88
2022-12-22T21:10:18.519Z,94315.00
2022-12-22T21:12:46.277Z,94320.44
2022-12-22T21:15:19.054Z,94317.97
2022-12-22T21:17:49.040Z,94315.25
2022-12-22T21:20:21.112Z,94317.72
2022-12-22T21:22:48.727Z,94313.09
2022-12-22T21:25:17.849Z,94312.53
2022-12-22T21:27:47.904Z,94310.06
2022-12-22T21:30:18.113Z,94305.69
2022-12-22T21:32:46.219Z,94300.53
2022-12-22T21:35:15.465Z,94294.53
2022-12-22T21:37:44.764Z,94296.13
2022-12-22T21:40:20.299Z,94299.91
2022-12-22T21:42:47.950Z,94293.41
2022-12-22T21:45:16.786Z,94295.28
2022-12-22T21:47:44.381Z,94288.22
2022-12-22T21:50:19.611Z,94279.25
2022-12-22T21:52:50.203Z,94279.75
2022-12-22T21:55:25.647Z,94283.56
2022-12-22T21:57:53.704Z,94264.75
2022-12-22T22:00:22.378Z,94268.78
2022-12-22T22:02:50.667Z,94270.13
2022-12-22T22:05:27.184Z,94260.31
2022-12-22T22:07:55.085Z,94265.19
2022-12-22T22:10:26.020Z,94258.03
2022-12-22T22:12:54.115Z,94250.41
2022-12-22T22:15:23.879Z,94246.06
2022-12-22T22:17:51.914Z,94241.13
2022-12-22T22:20:21.155Z,94231.09
2022-12-22T22:22:50.590Z,94229.47
2022-12-22T22:25:19.587Z,94222.09
2022-12-22T22:27:49.027Z,94229.41
2022-12-22T22:30:18.334Z,94221.78
2022-12-22T22:32:45.955Z,94216.59
2022-12-22T22:35:14.890Z,94220.94
2022-12-22T22:37:42.592Z,94206.81
2022-12-22T22:40:12.523Z,94211.91
2022-12-22T22:42:40.175Z,94201.88
2022-12-22T22:45:11.312Z,94196.44
2022-12-22T22:47:38.875Z,94196.16
2022-12-22T22:50:08.821Z,94177.06
2022-12-22T22:52:36.642Z,94165.41
2022-12-22T22:55:04.428Z,94155.63
2022-12-22T22:57:32.032Z,94148.22
2022-12-22T22:59:59.578Z,94145.53
2022-12-22T23:02:28.672Z,94153.91
2022-12-22T23:04:56.364Z,94146.84
2022-12-22T23:07:24.010Z,94143.34
2022-12-22T23:09:51.573Z,94147.34
2022-12-22T23:12:19.165Z,94146.25
2022-12-22T23:14:46.750Z,94152.97
2022-12-22T23:17:14.370Z,94162.41
2022-12-22T23:19:43.351Z,94164.56
2022-12-22T23:22:10.938Z,94161.78
2022-12-22T23:24:38.685Z,94152.28
2022-12-22T23:27:06.229Z,94150.56
2022-12-22T23:29:33.843Z,94138.56
2022-12-22T23:32:01.502Z,94140.72
2022-12-22T23:34:29.159Z,94142.31
2022-12-22T23:36:58.092Z,94151.19
2022-12-22T23:39:25.815Z,94152.41
2022-12-22T23:41:53.392Z,94141.44
2022-12-22T23:44:20.993Z,94130.53
2022-12-22T23:46:48.690Z,94121.84
2022-12-22T23:49:16.283Z,94109.78
2022-12-22T23:51:43.805Z,94104.28
2022-12-22T23:54:12.756Z,94102.91
2022-12-22T23:56:40.337Z,94102.66
2022-12-22T23:59:08.671Z,94100.44
